CheckWX is a tool to help pilots better visualize weather data.  It is not intended as a substitute for an official pre-flight weather briefing.

09:15:29 UTC

M19 METAR
Newport Regional Airport
Newport, Arkansas, USA
Current

19 mins ago

KM19 250856Z AUTO 30004KT 10SM OVC013 22/21 A2997 RMK AO2 SLP144 T02170206 56008
Observed
Aug-25 @ 08:56 UTC
Wind
  • 300° at 4 KTS
Visibility
10 SM
Flight Rules
MVFR
Cloud Levels
  • Overcast at 1,300' AGL
Temperature
22°C / 72°F
Dewpoint
21°C / 70°F
Humidity
94%
Altimeter
29.97" Hg
Pressure
1014.92 hPa
Previous

59 mins ago

KM19 250816Z AUTO 35003KT 10SM OVC013 22/21 A2996 RMK AO2
Observed
Aug-25 @ 08:16 UTC
Wind
  • 350° at 3 KTS
Visibility
10 SM
Flight Rules
MVFR
Cloud Levels
  • Overcast at 1,300' AGL
Temperature
22°C / 72°F
Dewpoint
21°C / 70°F
Humidity
94%
Altimeter
29.96" Hg
Pressure
1014.52 hPa
Previous

1 hour ago

KM19 250756Z AUTO 36004KT 10SM OVC015 22/21 A2997 RMK AO2 SLP144 T02170206
Observed
Aug-25 @ 07:56 UTC
Wind
  • 360° at 4 KTS
Visibility
10 SM
Flight Rules
MVFR
Cloud Levels
  • Overcast at 1,500' AGL
Temperature
22°C / 72°F
Dewpoint
21°C / 70°F
Humidity
94%
Altimeter
29.97" Hg
Pressure
1014.92 hPa